createdAt,value
2022-12-11T00:04:28.463Z,78.30
2022-12-11T00:09:32.364Z,78.20
2022-12-11T00:14:37.053Z,78.40
2022-12-11T00:19:40.390Z,78.50
2022-12-11T00:24:43.780Z,78.80
2022-12-11T00:29:48.668Z,78.60
2022-12-11T00:34:52.088Z,78.50
2022-12-11T00:39:56.692Z,78.90
2022-12-11T00:45:01.487Z,79.00
2022-12-11T00:50:05.457Z,79.00
2022-12-11T01:01:58.452Z,78.90
2022-12-11T01:07:02.127Z,79.00
2022-12-11T01:12:05.770Z,79.00
2022-12-11T01:17:10.837Z,78.80
2022-12-11T01:22:14.531Z,78.80
2022-12-11T01:27:18.150Z,78.80
2022-12-11T01:32:23.507Z,78.70
2022-12-11T01:37:26.909Z,78.60
2022-12-11T01:42:30.506Z,78.70
2022-12-11T01:47:35.204Z,78.80
2022-12-11T01:52:38.650Z,79.00
2022-12-11T01:57:45.547Z,79.40
2022-12-11T02:02:50.348Z,79.80
2022-12-11T02:07:57.525Z,79.80
2022-12-11T02:13:06.801Z,80.00
2022-12-11T02:18:21.187Z,80.20
2022-12-11T02:23:42.840Z,80.50
2022-12-11T02:28:52.323Z,80.80
2022-12-11T02:34:02.244Z,80.90
2022-12-11T02:39:08.748Z,80.90
2022-12-11T02:44:17.551Z,80.90
2022-12-11T02:49:23.184Z,81.20
2022-12-11T02:54:29.558Z,81.20
2022-12-11T02:59:37.610Z,81.10
2022-12-11T03:04:42.699Z,81.30
2022-12-11T03:09:48.272Z,81.40
2022-12-11T03:14:53.196Z,81.10
2022-12-11T03:20:04.972Z,80.90
2022-12-11T03:25:11.851Z,80.90
2022-12-11T03:30:19.322Z,80.40
2022-12-11T03:35:27.518Z,81.00
2022-12-11T03:40:34.304Z,81.30
2022-12-11T03:45:41.143Z,81.30
2022-12-11T03:50:46.340Z,81.30
2022-12-11T03:55:50.626Z,81.10
2022-12-11T04:00:55.384Z,81.00
2022-12-11T04:05:58.780Z,81.10
2022-12-11T04:11:22.210Z,81.70
2022-12-11T04:16:26.937Z,81.70
2022-12-11T04:21:56.386Z,82.00
2022-12-11T04:27:00.353Z,82.60
2022-12-11T04:32:05.203Z,83.10
2022-12-11T04:37:08.865Z,83.20
2022-12-11T04:42:12.475Z,83.30
2022-12-11T04:47:17.332Z,84.10
2022-12-11T04:52:21.060Z,82.90
2022-12-11T04:57:24.496Z,82.70
2022-12-11T05:02:29.266Z,82.50
2022-12-11T05:07:32.814Z,82.20
2022-12-11T05:12:36.197Z,82.90
2022-12-11T05:17:40.971Z,82.00
2022-12-11T05:22:44.329Z,82.00
2022-12-11T05:27:48.143Z,81.90
2022-12-11T05:32:53.519Z,82.00
2022-12-11T05:37:58.283Z,81.80
2022-12-11T05:43:01.696Z,81.90
2022-12-11T05:48:06.927Z,81.70
2022-12-11T05:53:10.691Z,81.40
2022-12-11T05:58:14.048Z,81.40
2022-12-11T06:03:18.867Z,81.60
2022-12-11T06:08:22.350Z,81.40
2022-12-11T06:13:25.772Z,81.40
2022-12-11T06:18:30.860Z,81.30
2022-12-11T06:23:34.252Z,81.10
2022-12-11T06:28:38.339Z,80.70
2022-12-11T06:33:43.346Z,80.90
2022-12-11T06:38:47.777Z,80.50
2022-12-11T06:43:51.529Z,80.70
2022-12-11T06:48:56.335Z,80.30
2022-12-11T06:53:59.680Z,80.00
2022-12-11T06:59:07.314Z,79.70
2022-12-11T07:04:12.405Z,80.10
2022-12-11T07:09:15.776Z,79.80
2022-12-11T07:14:19.553Z,80.00
2022-12-11T07:19:24.840Z,80.10
2022-12-11T07:24:28.346Z,80.00
2022-12-11T07:29:32.290Z,79.80
2022-12-11T07:34:37.177Z,80.10
2022-12-11T07:39:40.717Z,79.80
2022-12-11T07:44:44.139Z,79.80
2022-12-11T07:49:49.496Z,79.60
2022-12-11T07:54:53.078Z,79.40
2022-12-11T07:59:56.533Z,79.20
2022-12-11T08:05:01.666Z,78.90
2022-12-11T08:10:06.086Z,78.90
2022-12-11T08:15:11.059Z,78.70
2022-12-11T08:20:16.470Z,78.30
2022-12-11T08:25:19.935Z,77.80
2022-12-11T08:30:23.373Z,78.20
2022-12-11T08:35:28.205Z,77.50
2022-12-11T08:40:31.569Z,77.70
2022-12-11T08:45:35.139Z,77.40
2022-12-11T08:50:40.145Z,77.30
2022-12-11T08:55:43.469Z,77.30
2022-12-11T09:00:47.146Z,77.20
2022-12-11T09:05:52.319Z,77.00
2022-12-11T09:10:55.686Z,76.70
2022-12-11T09:15:59.176Z,76.10
2022-12-11T09:21:06.377Z,75.80
2022-12-11T09:26:11.948Z,76.10
2022-12-11T09:31:17.820Z,76.30
2022-12-11T09:36:22.595Z,76.10
2022-12-11T09:41:39.785Z,76.00
2022-12-11T09:46:43.734Z,75.90
2022-12-11T09:51:53.032Z,76.10
2022-12-11T09:57:03.826Z,76.50
2022-12-11T10:02:23.139Z,76.30
2022-12-11T10:07:34.297Z,75.80
2022-12-11T10:12:47.049Z,75.80
2022-12-11T10:17:51.973Z,75.90
2022-12-11T10:22:57.892Z,76.20
2022-12-11T10:28:10.036Z,76.20
2022-12-11T10:33:22.603Z,75.30
2022-12-11T10:38:31.526Z,75.00
2022-12-11T10:43:37.640Z,74.70
2022-12-11T10:48:47.010Z,74.60
2022-12-11T10:54:04.047Z,74.00
2022-12-11T10:59:19.834Z,72.90
2022-12-11T11:04:32.323Z,73.20
2022-12-11T11:09:37.527Z,72.90
2022-12-11T11:14:40.967Z,73.30
2022-12-11T11:19:48.484Z,73.40
2022-12-11T11:24:57.799Z,73.40
2022-12-11T11:30:04.607Z,73.40
2022-12-11T11:35:22.229Z,73.40
2022-12-11T11:40:30.395Z,73.10
2022-12-11T11:45:39.607Z,73.50
2022-12-11T11:50:47.423Z,73.90
2022-12-11T11:55:59.740Z,73.40
2022-12-11T12:01:03.127Z,73.30
2022-12-11T12:06:15.940Z,73.20
2022-12-11T12:11:31.830Z,73.50
2022-12-11T12:16:57.947Z,73.40
2022-12-11T12:22:14.282Z,73.60
2022-12-11T12:27:50.986Z,73.80
2022-12-11T12:33:03.206Z,73.90
2022-12-11T12:38:16.851Z,74.00
2022-12-11T12:43:53.648Z,74.10
2022-12-11T12:48:59.832Z,74.20
2022-12-11T12:54:10.680Z,74.40
2022-12-11T12:59:25.706Z,74.70
2022-12-11T13:04:55.438Z,74.90
2022-12-11T13:10:03.839Z,74.60
2022-12-11T13:15:25.389Z,74.90
2022-12-11T13:20:31.364Z,74.50
2022-12-11T13:25:48.352Z,74.30
2022-12-11T13:31:08.475Z,74.10
2022-12-11T13:36:29.627Z,73.30
2022-12-11T13:41:37.051Z,73.40
2022-12-11T13:46:41.744Z,73.50
2022-12-11T13:51:54.013Z,73.20
2022-12-11T13:57:01.060Z,73.40
2022-12-11T14:02:16.043Z,73.80
2022-12-11T14:07:26.060Z,73.90
2022-12-11T14:12:31.315Z,73.90
2022-12-11T14:17:36.698Z,74.80
2022-12-11T14:22:40.067Z,75.30
2022-12-11T14:27:49.176Z,75.70
2022-12-11T14:32:58.063Z,75.90
2022-12-11T14:38:06.766Z,75.90
2022-12-11T14:43:16.635Z,75.50
2022-12-11T14:48:27.376Z,75.00
2022-12-11T14:53:34.830Z,74.10
2022-12-11T14:58:43.600Z,73.40
2022-12-11T15:03:48.883Z,73.60
2022-12-11T15:08:52.562Z,73.60
2022-12-11T15:13:58.260Z,73.20
2022-12-11T15:19:03.554Z,73.20
2022-12-11T15:24:08.244Z,73.60
2022-12-11T15:29:27.268Z,73.30
2022-12-11T15:34:35.788Z,73.30
2022-12-11T15:39:39.163Z,73.30
2022-12-11T15:44:43.760Z,73.20
2022-12-11T15:49:48.748Z,73.40
2022-12-11T15:54:52.230Z,73.20
2022-12-11T15:59:56.352Z,72.70
2022-12-11T16:05:01.133Z,72.60
2022-12-11T16:10:05.549Z,72.90
2022-12-11T16:15:09.944Z,72.20
2022-12-11T16:20:15.964Z,72.00
2022-12-11T16:25:19.392Z,71.80
2022-12-11T16:30:23.257Z,72.10
2022-12-11T16:35:29.638Z,71.70
2022-12-11T16:40:33.284Z,72.10
2022-12-11T16:45:37.112Z,72.50
2022-12-11T16:50:42.303Z,72.50
2022-12-11T16:55:45.810Z,72.50
2022-12-11T17:00:50.964Z,72.50
2022-12-11T17:05:55.974Z,72.50
2022-12-11T17:10:59.401Z,72.80
2022-12-11T17:16:05.706Z,72.70
2022-12-11T17:21:12.610Z,73.00
2022-12-11T17:26:16.813Z,73.20
2022-12-11T17:31:20.577Z,73.30
2022-12-11T17:36:25.324Z,73.30
2022-12-11T17:41:28.987Z,73.30
2022-12-11T17:46:33.075Z,73.60
2022-12-11T17:51:37.902Z,74.10
2022-12-11T17:56:41.289Z,74.10
2022-12-11T18:01:44.995Z,74.30
2022-12-11T18:06:49.921Z,74.50
2022-12-11T18:11:53.268Z,75.00
2022-12-11T18:16:56.647Z,75.50
2022-12-11T18:22:01.374Z,76.10
2022-12-11T18:27:04.771Z,76.40
2022-12-11T18:32:08.647Z,76.70
2022-12-11T18:37:13.745Z,77.10
2022-12-11T18:42:32.796Z,77.10
2022-12-11T18:47:37.618Z,77.50
2022-12-11T18:52:42.624Z,77.90
2022-12-11T18:57:46.146Z,77.90
2022-12-11T19:02:52.011Z,78.30
2022-12-11T19:07:56.887Z,78.50
2022-12-11T19:13:00.280Z,79.00
2022-12-11T19:18:03.985Z,78.50
2022-12-11T19:23:08.885Z,78.20
2022-12-11T19:28:12.740Z,78.30
2022-12-11T19:33:17.128Z,78.60
2022-12-11T19:38:22.939Z,79.20
2022-12-11T19:43:26.428Z,79.90
2022-12-11T19:48:30.452Z,79.90
2022-12-11T19:53:36.143Z,79.50
2022-12-11T19:58:40.211Z,79.60
2022-12-11T20:03:43.817Z,79.70
2022-12-11T20:08:48.923Z,79.80
2022-12-11T20:13:55.443Z,79.80
2022-12-11T20:18:58.821Z,79.60
2022-12-11T20:24:03.564Z,79.70
2022-12-11T20:29:08.429Z,79.70
2022-12-11T20:34:12.488Z,79.90
2022-12-11T20:39:17.325Z,79.80
2022-12-11T20:44:21.240Z,79.80
2022-12-11T20:49:25.183Z,80.10
2022-12-11T20:54:29.976Z,80.20
2022-12-11T20:59:33.516Z,80.30
2022-12-11T21:04:39.639Z,80.40
2022-12-11T21:09:44.345Z,80.60
2022-12-11T21:14:47.692Z,80.50
2022-12-11T21:19:51.519Z,80.30
2022-12-11T21:24:56.248Z,80.90
2022-12-11T21:29:59.665Z,80.70
2022-12-11T21:35:03.158Z,80.70
2022-12-11T21:40:09.109Z,80.90
2022-12-11T21:50:36.492Z,81.50
2022-12-11T21:55:42.624Z,81.90
2022-12-11T22:00:46.850Z,82.50
2022-12-11T22:05:50.233Z,82.70
2022-12-11T22:10:55.639Z,82.70
2022-12-11T22:15:59.220Z,83.00
2022-12-11T22:21:02.856Z,83.00
2022-12-11T22:26:08.332Z,82.90
2022-12-11T22:31:12.805Z,83.30
2022-12-11T22:36:17.814Z,83.00
2022-12-11T22:41:26.401Z,84.30
2022-12-11T22:46:30.753Z,83.70
2022-12-11T22:51:34.333Z,83.90
2022-12-11T22:56:39.740Z,83.90
2022-12-11T23:01:43.442Z,84.00
2022-12-11T23:06:46.874Z,84.20
2022-12-11T23:11:52.524Z,84.40
2022-12-11T23:16:55.936Z,84.80
2022-12-11T23:21:59.386Z,85.10
2022-12-11T23:27:04.492Z,85.40
2022-12-11T23:32:07.888Z,85.50
2022-12-11T23:37:11.280Z,85.40
2022-12-11T23:42:16.111Z,85.20
2022-12-11T23:47:19.734Z,85.20
2022-12-11T23:52:24.029Z,85.20
2022-12-11T23:57:28.806Z,85.20
